createdAt,value
2023-05-13T00:02:02.357Z,8.43
2023-05-13T00:04:29.455Z,6.40
2023-05-13T00:06:56.550Z,6.35
2023-05-13T00:09:23.571Z,5.70
2023-05-13T00:11:50.720Z,6.45
2023-05-13T00:14:17.751Z,6.18
2023-05-13T00:16:44.973Z,8.00
2023-05-13T00:19:12.350Z,6.00
2023-05-13T00:21:39.677Z,6.75
2023-05-13T00:24:07.245Z,11.30
2023-05-13T00:26:34.257Z,6.63
2023-05-13T00:29:01.272Z,7.68
2023-05-13T00:31:28.410Z,5.85
2023-05-13T00:33:55.593Z,6.93
2023-05-13T00:36:22.696Z,7.40
2023-05-13T00:38:49.694Z,6.50
2023-05-13T00:41:17.637Z,6.32
2023-05-13T00:43:44.701Z,7.00
2023-05-13T00:46:11.776Z,6.72
2023-05-13T00:48:39.123Z,7.72
2023-05-13T00:51:06.549Z,8.57
2023-05-13T00:53:35.131Z,8.73
2023-05-13T00:56:02.227Z,9.15
2023-05-13T00:58:29.319Z,9.85
2023-05-13T01:01:26.090Z,8.85
2023-05-13T01:04:21.169Z,8.25
2023-05-13T01:07:01.395Z,10.48
2023-05-13T01:10:02.665Z,7.97
2023-05-13T01:12:38.851Z,10.85
2023-05-13T01:15:25.608Z,7.97
2023-05-13T01:18:24.844Z,8.57
2023-05-13T01:20:56.371Z,8.15
2023-05-13T01:23:23.344Z,10.15
2023-05-13T01:25:50.660Z,11.45
2023-05-13T01:28:17.696Z,9.55
2023-05-13T01:30:45.880Z,8.25
2023-05-13T01:33:14.283Z,9.40
2023-05-13T01:35:41.505Z,8.35
2023-05-13T01:38:09.473Z,11.88
2023-05-13T01:40:38.414Z,9.98
2023-05-13T01:43:05.718Z,8.43
2023-05-13T01:45:33.753Z,8.82
2023-05-13T01:48:00.920Z,7.60
2023-05-13T01:50:28.019Z,8.75
2023-05-13T01:52:55.095Z,8.52
2023-05-13T01:55:22.127Z,8.57
2023-05-13T01:57:49.302Z,8.55
2023-05-13T02:00:16.654Z,8.60
2023-05-13T02:02:44.739Z,8.82
2023-05-13T02:05:12.057Z,9.88
2023-05-13T02:07:39.057Z,8.77
2023-05-13T02:10:06.487Z,8.15
2023-05-13T02:12:33.599Z,9.80
2023-05-13T02:15:04.179Z,8.50
2023-05-13T02:17:34.050Z,8.82
2023-05-13T02:20:01.214Z,8.27
2023-05-13T02:22:28.308Z,8.60
2023-05-13T02:24:56.760Z,7.93
2023-05-13T02:27:24.047Z,7.72
2023-05-13T02:29:51.085Z,8.32
2023-05-13T02:32:18.148Z,7.47
2023-05-13T02:34:45.412Z,9.07
2023-05-13T02:37:12.554Z,8.00
2023-05-13T02:39:39.581Z,9.15
2023-05-13T02:42:06.683Z,8.05
2023-05-13T02:44:33.618Z,8.88
2023-05-13T02:47:01.065Z,8.88
2023-05-13T02:49:28.099Z,8.65
2023-05-13T02:51:55.061Z,8.30
2023-05-13T02:54:22.144Z,8.70
2023-05-13T02:56:49.136Z,8.70
2023-05-13T02:59:16.346Z,8.60
2023-05-13T03:01:43.457Z,9.60
2023-05-13T03:04:10.611Z,8.98
2023-05-13T03:06:37.666Z,8.02
2023-05-13T03:09:04.695Z,9.25
2023-05-13T03:11:31.687Z,9.43
2023-05-13T03:13:58.739Z,8.80
2023-05-13T03:16:26.204Z,8.18
2023-05-13T03:18:53.332Z,9.50
2023-05-13T03:21:20.663Z,10.25
2023-05-13T03:23:47.621Z,9.70
2023-05-13T03:26:14.616Z,9.27
2023-05-13T03:28:41.660Z,10.48
2023-05-13T03:31:09.573Z,10.50
2023-05-13T03:33:36.577Z,9.70
2023-05-13T03:36:03.736Z,9.38
2023-05-13T03:38:30.781Z,10.52
2023-05-13T03:40:57.783Z,10.27
2023-05-13T03:43:24.816Z,10.70
2023-05-13T03:45:52.179Z,10.98
2023-05-13T03:48:19.202Z,9.73
2023-05-13T03:50:46.274Z,10.88
2023-05-13T03:53:13.358Z,11.18
2023-05-13T03:55:40.437Z,10.68
2023-05-13T03:58:15.461Z,10.13
2023-05-13T04:00:46.902Z,9.15
2023-05-13T04:03:16.567Z,9.80
2023-05-13T04:05:46.323Z,8.95
2023-05-13T04:08:13.534Z,10.13
2023-05-13T04:10:40.642Z,9.15
2023-05-13T04:13:07.964Z,8.90
2023-05-13T04:15:34.997Z,9.07
2023-05-13T04:18:02.051Z,9.20
2023-05-13T04:20:29.378Z,9.80
2023-05-13T04:22:56.699Z,8.50
2023-05-13T04:25:23.732Z,8.95
2023-05-13T04:27:50.859Z,9.40
2023-05-13T04:30:17.938Z,8.55
2023-05-13T04:32:45.430Z,7.78
2023-05-13T04:35:12.630Z,8.70
2023-05-13T04:37:39.712Z,8.85
2023-05-13T04:40:08.323Z,9.15
2023-05-13T04:42:35.535Z,11.25
2023-05-13T04:45:02.866Z,10.80
2023-05-13T04:47:29.864Z,7.95
2023-05-13T04:49:56.887Z,9.93
2023-05-13T04:52:24.395Z,10.07
2023-05-13T04:54:51.877Z,9.27
2023-05-13T04:57:18.936Z,12.02
2023-05-13T04:59:46.001Z,9.27
2023-05-13T05:02:13.227Z,8.48
2023-05-13T05:04:40.199Z,10.82
2023-05-13T05:07:07.190Z,11.65
2023-05-13T05:09:34.239Z,10.65
2023-05-13T05:12:01.221Z,12.13
2023-05-13T05:14:28.246Z,10.73
2023-05-13T05:16:55.288Z,9.95
2023-05-13T05:19:24.370Z,9.80
2023-05-13T05:21:54.535Z,10.55
2023-05-13T05:24:21.646Z,10.35
2023-05-13T05:26:48.692Z,10.18
2023-05-13T05:29:15.811Z,12.02
2023-05-13T05:31:42.911Z,11.10
2023-05-13T05:34:10.129Z,12.05
2023-05-13T05:36:38.356Z,10.27
2023-05-13T05:39:06.151Z,14.38
2023-05-13T05:41:33.556Z,13.52
2023-05-13T05:44:00.586Z,11.27
2023-05-13T05:46:28.482Z,10.98
2023-05-13T05:48:55.658Z,11.32
2023-05-13T05:51:22.712Z,11.43
2023-05-13T05:53:49.816Z,12.35
2023-05-13T05:56:16.897Z,11.50
2023-05-13T05:58:43.965Z,11.20
2023-05-13T06:01:11.062Z,11.63
2023-05-13T06:03:38.384Z,12.68
2023-05-13T06:06:05.923Z,10.98
2023-05-13T06:08:32.973Z,10.93
2023-05-13T06:11:00.205Z,11.75
2023-05-13T06:13:27.416Z,11.32
2023-05-13T06:15:54.482Z,11.65
2023-05-13T06:18:21.549Z,13.38
2023-05-13T06:20:48.592Z,11.30
2023-05-13T06:23:15.790Z,12.90
2023-05-13T06:25:42.789Z,12.07
2023-05-13T06:28:11.207Z,13.80
2023-05-13T06:30:38.753Z,14.38
2023-05-13T06:33:05.931Z,12.93
2023-05-13T06:35:33.028Z,15.70
2023-05-13T06:38:00.038Z,14.00
2023-05-13T06:40:27.112Z,15.35
2023-05-13T06:42:54.229Z,13.85
2023-05-13T06:45:23.588Z,13.25
2023-05-13T06:47:53.971Z,15.80
2023-05-13T06:50:21.210Z,15.57
2023-05-13T06:52:48.691Z,15.13
2023-05-13T06:55:16.866Z,12.40
2023-05-13T06:57:47.190Z,22.88
2023-05-13T07:00:15.781Z,11.95
2023-05-13T07:02:42.963Z,11.32
2023-05-13T07:05:11.651Z,11.93
2023-05-13T07:07:39.183Z,11.27
2023-05-13T07:10:06.720Z,11.50
2023-05-13T07:12:34.103Z,12.35
2023-05-13T07:15:01.170Z,10.80
2023-05-13T07:17:28.475Z,10.05
2023-05-13T07:19:57.059Z,11.48
2023-05-13T07:22:24.918Z,10.05
2023-05-13T07:24:51.945Z,10.55
2023-05-13T07:27:18.993Z,10.48
2023-05-13T07:29:46.158Z,10.52
2023-05-13T07:32:13.277Z,17.95
2023-05-13T07:34:40.712Z,11.68
2023-05-13T07:37:07.748Z,12.15
2023-05-13T07:39:34.741Z,11.73
2023-05-13T07:42:02.396Z,14.52
2023-05-13T07:44:30.296Z,11.52
2023-05-13T07:46:57.356Z,11.25
2023-05-13T07:49:24.445Z,11.20
2023-05-13T07:51:51.872Z,10.75
2023-05-13T07:54:19.006Z,11.85
2023-05-13T07:56:48.254Z,13.40
2023-05-13T07:59:15.383Z,11.25
2023-05-13T08:01:43.042Z,11.80
2023-05-13T08:04:10.468Z,15.77
2023-05-13T08:06:37.807Z,11.20
2023-05-13T08:09:05.007Z,12.68
2023-05-13T08:11:32.185Z,10.52
2023-05-13T08:13:59.259Z,9.80
2023-05-13T08:16:26.477Z,9.70
2023-05-13T08:18:53.823Z,12.95
2023-05-13T08:21:20.890Z,9.32
2023-05-13T08:23:49.808Z,10.13
2023-05-13T08:26:17.026Z,9.70
2023-05-13T08:28:44.098Z,8.60
2023-05-13T08:31:14.445Z,10.00
2023-05-13T08:33:47.558Z,9.50
2023-05-13T08:36:14.823Z,12.73
2023-05-13T08:38:43.709Z,10.27
2023-05-13T08:41:15.082Z,24.15
2023-05-13T08:43:48.532Z,11.63
2023-05-13T08:46:17.258Z,11.52
2023-05-13T08:48:45.125Z,10.10
2023-05-13T08:51:12.956Z,14.35
2023-05-13T08:53:41.205Z,11.40
2023-05-13T08:56:12.061Z,10.70
2023-05-13T08:58:39.106Z,12.43
2023-05-13T09:01:08.148Z,13.05
2023-05-13T09:03:36.578Z,14.73
2023-05-13T09:06:04.118Z,10.50
2023-05-13T09:08:32.889Z,11.40
2023-05-13T09:11:01.078Z,9.07
2023-05-13T09:13:27.995Z,10.60
2023-05-13T09:15:55.200Z,9.05
2023-05-13T09:18:22.531Z,11.20
2023-05-13T09:20:49.658Z,11.77
2023-05-13T09:23:18.758Z,8.40
2023-05-13T09:25:45.900Z,12.48
2023-05-13T09:28:15.489Z,10.20
2023-05-13T09:30:45.636Z,11.65
2023-05-13T09:33:20.210Z,11.43
2023-05-13T09:35:53.016Z,10.35
2023-05-13T09:38:29.161Z,9.93
2023-05-13T09:41:02.135Z,10.60
2023-05-13T09:43:32.535Z,8.95
2023-05-13T09:46:04.947Z,9.02
2023-05-13T09:48:38.315Z,9.15
2023-05-13T09:51:05.813Z,9.63
2023-05-13T09:53:32.970Z,9.52
2023-05-13T09:56:01.739Z,7.15
2023-05-13T09:58:30.906Z,8.52
2023-05-13T10:00:58.829Z,11.00
2023-05-13T10:03:27.697Z,9.82
2023-05-13T10:05:55.348Z,8.95
2023-05-13T10:08:23.853Z,8.15
2023-05-13T10:10:54.035Z,9.00
2023-05-13T10:13:26.699Z,8.50
2023-05-13T10:15:55.417Z,8.38
2023-05-13T10:18:24.437Z,8.38
2023-05-13T10:20:55.061Z,9.05
2023-05-13T10:23:24.615Z,8.85
2023-05-13T10:25:55.422Z,11.00
2023-05-13T10:28:23.294Z,9.80
2023-05-13T10:30:53.874Z,9.52
2023-05-13T10:33:21.959Z,9.82
2023-05-13T10:36:28.521Z,9.98
2023-05-13T10:39:05.162Z,10.23
2023-05-13T10:41:51.010Z,13.15
2023-05-13T10:44:20.240Z,9.90
2023-05-13T10:46:48.699Z,10.20
2023-05-13T10:49:16.739Z,10.02
2023-05-13T10:51:49.480Z,10.70
2023-05-13T10:54:25.217Z,7.80
2023-05-13T10:56:59.544Z,8.73
2023-05-13T10:59:30.634Z,8.90
2023-05-13T11:02:01.029Z,8.97
2023-05-13T11:04:28.273Z,8.30
2023-05-13T11:06:55.696Z,8.00
2023-05-13T11:09:23.042Z,7.13
2023-05-13T11:11:54.869Z,8.00
2023-05-13T11:14:24.124Z,7.68
2023-05-13T11:17:04.603Z,8.68
2023-05-13T11:19:46.934Z,8.60
2023-05-13T11:22:16.460Z,8.75
2023-05-13T11:25:03.524Z,7.00
2023-05-13T11:27:37.766Z,7.72
2023-05-13T11:30:24.714Z,9.55
2023-05-13T11:32:52.330Z,7.88
2023-05-13T11:35:30.572Z,7.00
2023-05-13T11:38:00.472Z,7.85
2023-05-13T11:40:29.214Z,10.00
2023-05-13T11:42:56.899Z,9.15
2023-05-13T11:45:25.461Z,9.77
2023-05-13T11:47:53.698Z,9.90
2023-05-13T11:50:23.214Z,11.23
2023-05-13T11:52:55.385Z,11.25
2023-05-13T11:55:34.135Z,9.77
2023-05-13T11:58:01.325Z,9.90
2023-05-13T12:00:32.107Z,9.35
2023-05-13T12:03:00.568Z,10.05
2023-05-13T12:05:28.829Z,10.05
2023-05-13T12:07:58.889Z,8.40
2023-05-13T12:10:28.456Z,8.73
2023-05-13T12:12:56.180Z,8.32
2023-05-13T12:15:24.477Z,7.80
2023-05-13T12:17:55.131Z,7.40
2023-05-13T12:20:25.119Z,14.40
2023-05-13T12:22:54.772Z,8.88
2023-05-13T12:25:37.760Z,8.95
2023-05-13T12:28:32.745Z,9.25
2023-05-13T12:31:02.873Z,9.55
2023-05-13T12:33:41.539Z,16.23
2023-05-13T12:36:36.542Z,10.30
2023-05-13T12:39:12.162Z,11.30
2023-05-13T12:41:50.853Z,13.80
2023-05-13T12:44:18.684Z,11.40
2023-05-13T12:46:59.657Z,9.57
2023-05-13T12:49:27.827Z,9.60
2023-05-13T12:51:57.137Z,10.23
2023-05-13T12:54:24.384Z,10.80
2023-05-13T12:56:52.540Z,8.55
2023-05-13T12:59:20.127Z,8.63
2023-05-13T13:01:50.266Z,9.48
2023-05-13T13:04:19.293Z,8.90
2023-05-13T13:06:46.672Z,8.57
2023-05-13T13:09:13.773Z,8.98
2023-05-13T13:11:40.716Z,8.25
2023-05-13T13:14:09.424Z,9.10
2023-05-13T13:16:37.250Z,8.23
2023-05-13T13:19:04.678Z,7.90
2023-05-13T13:21:32.291Z,9.27
2023-05-13T13:23:59.773Z,9.02
2023-05-13T13:26:29.933Z,9.35
2023-05-13T13:29:15.763Z,8.90
2023-05-13T13:31:43.121Z,7.07
2023-05-13T13:34:12.413Z,8.30
2023-05-13T13:36:40.205Z,8.43
2023-05-13T13:39:08.972Z,10.13
2023-05-13T13:41:37.705Z,15.40
2023-05-13T13:44:05.640Z,8.52
2023-05-13T13:46:33.569Z,8.95
2023-05-13T13:49:03.911Z,10.75
2023-05-13T13:51:38.143Z,9.23
2023-05-13T13:54:08.522Z,9.18
2023-05-13T13:56:39.774Z,10.38
2023-05-13T13:59:07.051Z,10.27
2023-05-13T14:01:34.574Z,12.68
2023-05-13T14:04:28.095Z,7.32
2023-05-13T14:06:55.828Z,7.97
2023-05-13T14:09:23.051Z,8.77
2023-05-13T14:11:50.070Z,9.93
2023-05-13T14:14:17.171Z,10.75
2023-05-13T14:16:44.290Z,13.93
2023-05-13T14:19:12.066Z,11.80
2023-05-13T14:21:39.101Z,13.15
2023-05-13T14:24:08.524Z,9.80
2023-05-13T14:26:35.645Z,12.77
2023-05-13T14:29:02.762Z,11.85
2023-05-13T14:31:30.618Z,10.80
2023-05-13T14:33:58.402Z,11.13
2023-05-13T14:36:26.882Z,11.05
2023-05-13T14:38:54.599Z,11.52
2023-05-13T14:41:21.841Z,10.90
2023-05-13T14:43:49.430Z,12.68
2023-05-13T14:46:16.625Z,10.70
2023-05-13T14:48:44.116Z,12.80
2023-05-13T14:51:12.535Z,11.77
2023-05-13T14:53:40.356Z,13.55
2023-05-13T14:56:08.136Z,11.05
2023-05-13T14:58:35.419Z,8.77
2023-05-13T15:01:02.600Z,10.55
2023-05-13T15:03:29.831Z,10.60
2023-05-13T15:05:58.208Z,10.30
2023-05-13T15:08:25.559Z,11.65
2023-05-13T15:10:52.589Z,10.27
2023-05-13T15:13:19.704Z,11.15
2023-05-13T15:15:46.777Z,10.00
2023-05-13T15:18:14.325Z,11.75
2023-05-13T15:20:41.446Z,10.98
2023-05-13T15:23:08.708Z,7.68
2023-05-13T15:25:36.451Z,12.10
2023-05-13T15:28:03.493Z,10.07
2023-05-13T15:30:30.583Z,10.98
2023-05-13T15:32:57.718Z,12.15
2023-05-13T15:35:24.691Z,11.02
2023-05-13T15:37:51.725Z,15.38
2023-05-13T15:40:18.797Z,13.55
2023-05-13T15:42:45.869Z,12.25
2023-05-13T15:45:12.892Z,11.55
2023-05-13T15:47:40.076Z,15.68
2023-05-13T15:50:10.350Z,11.00
2023-05-13T15:52:37.876Z,14.60
2023-05-13T15:55:06.568Z,13.05
2023-05-13T15:57:33.564Z,16.63
2023-05-13T16:00:01.032Z,11.70
2023-05-13T16:02:36.125Z,13.68
2023-05-13T16:05:03.326Z,11.70
2023-05-13T16:07:30.406Z,12.27
2023-05-13T16:09:57.435Z,12.38
2023-05-13T16:12:24.587Z,10.52
2023-05-13T16:14:51.761Z,12.43
2023-05-13T16:17:18.810Z,12.25
2023-05-13T16:19:45.921Z,10.25
2023-05-13T16:22:33.749Z,12.23
2023-05-13T16:25:08.511Z,10.43
2023-05-13T16:27:36.796Z,14.48
2023-05-13T16:30:05.715Z,10.80
2023-05-13T16:32:34.834Z,15.90
2023-05-13T16:35:02.902Z,13.65
2023-05-13T16:37:30.516Z,12.40
2023-05-13T16:39:57.789Z,10.15
2023-05-13T16:42:25.386Z,10.63
2023-05-13T16:44:52.704Z,11.57
2023-05-13T16:47:19.785Z,18.13
2023-05-13T16:49:49.977Z,12.35
2023-05-13T16:52:17.034Z,11.82
2023-05-13T16:54:44.847Z,12.57
2023-05-13T16:57:12.026Z,13.63
2023-05-13T16:59:39.240Z,12.60
2023-05-13T17:02:07.694Z,13.80
2023-05-13T17:04:35.117Z,12.65
2023-05-13T17:07:02.911Z,13.48
2023-05-13T17:09:30.946Z,12.15
2023-05-13T17:11:58.133Z,14.18
2023-05-13T17:14:25.297Z,15.48
2023-05-13T17:16:52.875Z,12.30
2023-05-13T17:19:20.040Z,15.15
2023-05-13T17:21:49.936Z,14.93
2023-05-13T17:24:17.012Z,15.65
2023-05-13T17:26:44.059Z,13.55
2023-05-13T17:29:11.002Z,16.02
2023-05-13T17:31:38.145Z,16.00
2023-05-13T17:34:05.249Z,17.83
2023-05-13T17:36:32.918Z,14.60
2023-05-13T17:38:59.867Z,15.60
2023-05-13T17:41:26.878Z,15.65
2023-05-13T17:43:53.933Z,14.60
2023-05-13T17:46:21.154Z,16.23
2023-05-13T17:48:48.282Z,15.82
2023-05-13T17:51:15.375Z,17.65
2023-05-13T17:53:42.325Z,17.42
2023-05-13T17:56:10.836Z,16.15
2023-05-13T17:58:37.977Z,19.10
2023-05-13T18:01:05.054Z,16.00
2023-05-13T18:03:32.113Z,16.17
2023-05-13T18:05:59.298Z,16.08
2023-05-13T18:08:27.066Z,14.23
2023-05-13T18:10:54.184Z,13.55
2023-05-13T18:13:22.096Z,15.77
2023-05-13T18:15:49.946Z,16.02
2023-05-13T18:18:18.986Z,14.40
2023-05-13T18:20:46.751Z,13.80
2023-05-13T18:23:14.096Z,17.00
2023-05-13T18:25:54.741Z,13.98
2023-05-13T18:28:22.836Z,14.40
2023-05-13T18:30:49.968Z,15.02
2023-05-13T18:33:19.921Z,15.02
2023-05-13T18:35:46.981Z,17.40
2023-05-13T18:38:14.039Z,18.50
2023-05-13T18:40:41.092Z,16.95
2023-05-13T18:43:08.126Z,14.25
2023-05-13T18:45:35.267Z,13.68
2023-05-13T18:48:02.302Z,20.75
2023-05-13T18:50:29.395Z,13.05
2023-05-13T18:52:56.487Z,14.88
2023-05-13T18:55:23.564Z,14.30
2023-05-13T18:57:50.963Z,12.80
2023-05-13T19:00:18.855Z,12.70
2023-05-13T19:02:46.172Z,15.23
2023-05-13T19:05:13.330Z,14.13
2023-05-13T19:07:40.565Z,13.02
2023-05-13T19:10:07.831Z,15.65
2023-05-13T19:12:34.902Z,14.70
2023-05-13T19:15:02.062Z,13.52
2023-05-13T19:17:30.653Z,13.15
2023-05-13T19:20:00.475Z,15.23
2023-05-13T19:22:27.585Z,13.85
2023-05-13T19:24:54.770Z,17.20
2023-05-13T19:27:22.282Z,14.65
2023-05-13T19:29:49.752Z,23.25
2023-05-13T19:32:17.568Z,27.60
2023-05-13T19:34:44.580Z,18.73
2023-05-13T19:37:11.654Z,18.10
2023-05-13T19:39:38.762Z,17.40
2023-05-13T19:42:06.041Z,13.95
2023-05-13T19:44:34.310Z,13.52
2023-05-13T19:47:01.572Z,13.93
2023-05-13T19:49:29.262Z,13.73
2023-05-13T19:51:57.652Z,15.27
2023-05-13T19:54:24.819Z,14.00
2023-05-13T19:56:53.375Z,15.23
2023-05-13T19:59:20.472Z,16.90
2023-05-13T20:01:47.641Z,15.85
2023-05-13T20:04:14.923Z,13.85
2023-05-13T20:06:41.971Z,16.83
2023-05-13T20:09:10.627Z,13.85
2023-05-13T20:11:37.762Z,17.70
2023-05-13T20:14:04.926Z,22.88
2023-05-13T20:16:32.039Z,21.77
2023-05-13T20:18:59.446Z,14.50
2023-05-13T20:21:26.542Z,16.40
2023-05-13T20:23:53.769Z,14.75
2023-05-13T20:26:20.818Z,20.10
2023-05-13T20:28:48.884Z,16.30
2023-05-13T20:31:16.558Z,15.63
2023-05-13T20:33:43.656Z,15.73
2023-05-13T20:36:10.813Z,18.15
2023-05-13T20:38:37.875Z,15.63
2023-05-13T20:41:05.078Z,17.60
2023-05-13T20:43:34.448Z,17.50
2023-05-13T20:46:03.513Z,16.58
2023-05-13T20:48:32.235Z,17.30
2023-05-13T20:51:03.704Z,14.80
2023-05-13T20:53:32.964Z,16.08
2023-05-13T20:56:00.511Z,16.63
2023-05-13T20:58:27.586Z,15.98
2023-05-13T21:00:54.692Z,16.45
2023-05-13T21:03:22.611Z,17.98
2023-05-13T21:05:49.842Z,17.80
2023-05-13T21:08:16.960Z,19.77
2023-05-13T21:10:44.005Z,18.05
2023-05-13T21:13:11.334Z,18.52
2023-05-13T21:15:38.394Z,21.77
2023-05-13T21:18:05.659Z,17.30
2023-05-13T21:20:32.901Z,18.15
2023-05-13T21:23:01.459Z,19.63
2023-05-13T21:25:28.488Z,17.13
2023-05-13T21:27:55.638Z,16.95
2023-05-13T21:30:23.036Z,17.70
2023-05-13T21:32:50.240Z,17.48
2023-05-13T21:35:18.004Z,17.02
2023-05-13T21:37:47.208Z,18.50
2023-05-13T21:40:14.904Z,17.60
2023-05-13T21:42:41.960Z,15.80
2023-05-13T21:45:09.534Z,18.00
2023-05-13T21:47:37.276Z,18.13
2023-05-13T21:50:10.804Z,15.30
2023-05-13T21:52:38.045Z,15.98
2023-05-13T21:55:05.433Z,17.13
2023-05-13T21:57:32.504Z,17.73
2023-05-13T21:59:59.597Z,16.33
2023-05-13T22:02:26.693Z,22.00
2023-05-13T22:04:53.803Z,17.42
2023-05-13T22:07:20.832Z,16.45
2023-05-13T22:09:49.770Z,19.40
2023-05-13T22:12:17.540Z,18.70
2023-05-13T22:14:44.576Z,17.08
2023-05-13T22:17:11.783Z,16.50
2023-05-13T22:19:38.956Z,19.13
2023-05-13T22:22:06.090Z,17.67
2023-05-13T22:24:33.144Z,16.55
2023-05-13T22:27:00.479Z,19.33
2023-05-13T22:29:27.749Z,19.10
2023-05-13T22:31:57.593Z,13.70
2023-05-13T22:34:25.548Z,15.35
2023-05-13T22:36:52.796Z,18.73
2023-05-13T22:39:20.326Z,19.52
2023-05-13T22:41:47.802Z,16.52
2023-05-13T22:44:14.837Z,22.75
2023-05-13T22:46:41.891Z,19.17
2023-05-13T22:49:10.643Z,20.85
2023-05-13T22:51:37.764Z,16.00
2023-05-13T22:54:04.838Z,17.40
2023-05-13T22:56:31.924Z,15.10
2023-05-13T22:58:59.309Z,22.40
2023-05-13T23:01:26.787Z,16.10
2023-05-13T23:03:53.902Z,14.40
2023-05-13T23:06:20.998Z,17.52
2023-05-13T23:08:48.717Z,15.57
2023-05-13T23:11:15.804Z,21.50
2023-05-13T23:13:42.828Z,17.70
2023-05-13T23:16:10.123Z,16.38
2023-05-13T23:18:37.281Z,17.33
2023-05-13T23:21:04.567Z,20.15
2023-05-13T23:23:32.046Z,14.45
2023-05-13T23:25:59.122Z,14.57
2023-05-13T23:28:26.138Z,20.45
2023-05-13T23:30:56.749Z,15.98
2023-05-13T23:33:23.821Z,18.35
2023-05-13T23:35:54.964Z,15.68
2023-05-13T23:38:22.688Z,16.08
2023-05-13T23:40:49.774Z,16.55
2023-05-13T23:43:16.906Z,14.82
2023-05-13T23:45:44.874Z,21.70
2023-05-13T23:48:11.915Z,13.88
2023-05-13T23:50:41.824Z,16.67
2023-05-13T23:53:09.082Z,17.80
2023-05-13T23:55:36.155Z,15.98
2023-05-13T23:58:03.161Z,15.60
